Time;durP1;ratioP1;P1;durP2;ratioP2;P2;SDS_P1;SDS_P2;PMS_P1;PMS_P2;Temp;Humidity;BMP_temperature;BMP_pressure;BME280_temperature;BME280_humidity;BME280_pressure;Samples;Min_cycle;Max_cycle;Signal;HPM_P1;HPM_P2
2023/09/28 00:01:38;;;;;;;3.77;3.30;;;13.90;99.90;;;14.80;100.00;98190.81;5033406;28;20466;-81
2023/09/28 00:04:08;;;;;;;3.93;2.80;;;13.90;99.90;;;14.78;100.00;98191.03;5034506;28;20473;-81
2023/09/28 00:06:38;;;;;;;4.10;3.20;;;13.80;99.90;;;14.75;100.00;98191.44;5034581;28;20457;-81
2023/09/28 00:09:10;;;;;;;5.63;2.93;;;13.80;99.90;;;14.73;100.00;98197.94;5032649;28;20493;-81
2023/09/28 00:11:38;;;;;;;5.20;2.87;;;13.90;99.90;;;14.72;100.00;98201.56;5031878;28;20455;-80
2023/09/28 00:14:08;;;;;;;23.37;3.67;;;13.90;99.90;;;14.69;100.00;98199.38;5030987;28;20557;-80
2023/09/28 00:16:37;;;;;;;9.33;3.07;;;13.90;99.90;;;14.72;100.00;98206.84;5033415;28;20457;-81
2023/09/28 00:19:08;;;;;;;10.10;3.50;;;14.00;99.90;;;14.74;100.00;98199.56;5033422;28;20496;-81
2023/09/28 00:21:39;;;;;;;5.10;3.40;;;14.00;99.90;;;14.74;100.00;98194.28;5034148;28;20843;-81
2023/09/28 00:24:09;;;;;;;3.90;2.73;;;13.90;99.90;;;14.77;100.00;98197.31;5034433;28;20449;-80
2023/09/28 00:26:39;;;;;;;5.97;3.13;;;13.90;99.90;;;14.81;100.00;98205.59;5036029;28;20543;-80
2023/09/28 00:29:08;;;;;;;4.10;3.17;;;13.90;99.90;;;14.79;100.00;98176.84;5033859;28;20461;-81
2023/09/28 00:31:38;;;;;;;7.90;3.33;;;14.00;99.90;;;14.82;100.00;98178.25;5021861;28;20466;-81
2023/09/28 00:34:08;;;;;;;3.73;3.20;;;14.00;99.90;;;14.84;100.00;98168.31;5019957;28;20937;-81
2023/09/28 00:36:40;;;;;;;4.13;2.47;;;13.90;99.90;;;14.81;100.00;98150.31;5020241;28;20543;-80
2023/09/28 00:39:11;;;;;;;5.10;3.03;;;13.90;99.90;;;14.80;100.00;98182.91;5020355;28;20493;-80
2023/09/28 00:41:41;;;;;;;9.10;3.07;;;13.90;99.90;;;14.82;100.00;98165.09;5020788;28;20473;-80
2023/09/28 00:44:11;;;;;;;6.13;2.73;;;14.00;99.90;;;14.78;100.00;98175.25;5021461;28;20498;-81
2023/09/28 00:46:41;;;;;;;4.40;3.10;;;13.90;99.90;;;14.80;100.00;98175.00;5020981;28;20462;-80
2023/09/28 00:49:16;;;;;;;3.93;3.10;;;13.90;99.90;;;14.78;100.00;98167.34;5019904;28;20553;-80
2023/09/28 00:51:48;;;;;;;4.90;3.13;;;14.00;99.90;;;14.84;100.00;98168.31;5020980;28;20458;-81
2023/09/28 00:54:17;;;;;;;5.70;3.30;;;14.00;99.90;;;14.85;100.00;98165.50;5018084;28;20983;-81
2023/09/28 00:56:48;;;;;;;5.07;3.43;;;13.90;99.90;;;14.86;100.00;98166.25;5018045;28;20462;-80
2023/09/28 00:59:18;;;;;;;4.67;2.93;;;13.90;99.90;;;14.83;100.00;98177.22;5018723;28;20599;-81
2023/09/28 01:01:50;;;;;;;3.77;2.80;;;14.00;99.90;;;14.81;100.00;98168.75;5021663;28;20467;-81
2023/09/28 01:04:18;;;;;;;5.33;3.17;;;14.00;99.90;;;14.76;100.00;98172.00;5020400;28;20462;-80
2023/09/28 01:06:51;;;;;;;3.73;3.17;;;13.90;99.90;;;14.81;100.00;98168.75;5021517;28;20467;-81
2023/09/28 01:09:21;;;;;;;3.50;2.87;;;13.90;99.90;;;14.77;100.00;98183.34;5021228;28;20466;-81
2023/09/28 01:11:53;;;;;;;4.53;2.97;;;14.00;99.90;;;14.79;100.00;98182.09;5019364;28;20461;-81
2023/09/28 01:14:23;;;;;;;6.97;3.40;;;14.00;99.90;;;14.84;100.00;98189.38;5021952;28;20474;-81
2023/09/28 01:16:51;;;;;;;4.87;2.97;;;14.00;99.90;;;14.82;100.00;98173.00;5020509;28;20529;-80
2023/09/28 01:19:20;;;;;;;4.90;2.97;;;14.00;99.90;;;14.79;100.00;98186.56;5019527;28;20557;-81
2023/09/28 01:21:52;;;;;;;11.73;3.70;;;13.90;99.90;;;14.73;100.00;98193.47;5020742;28;20455;-81
2023/09/28 01:24:22;;;;;;;9.23;2.73;;;14.00;99.90;;;14.70;100.00;98191.28;5019837;28;20516;-81
2023/09/28 01:26:52;;;;;;;6.53;3.20;;;13.90;99.90;;;14.74;100.00;98195.09;5020766;28;20515;-81
2023/09/28 01:29:19;;;;;;;4.03;3.23;;;13.80;99.90;;;14.70;100.00;98204.44;5020055;28;20497;-80
2023/09/28 01:31:48;;;;;;;4.63;3.20;;;13.80;99.90;;;14.73;100.00;98205.84;5018875;28;20852;-81
2023/09/28 01:34:19;;;;;;;4.47;3.30;;;13.90;99.90;;;14.78;100.00;98206.03;5020315;28;20466;-81
2023/09/28 01:36:48;;;;;;;10.63;3.30;;;13.80;99.90;;;14.75;100.00;98211.72;5017735;28;20462;-80
2023/09/28 01:39:18;;;;;;;4.87;2.97;;;13.90;99.90;;;14.75;100.00;98211.72;5018499;28;20543;-83
2023/09/28 01:41:49;;;;;;;4.77;2.97;;;13.80;99.90;;;14.74;100.00;98210.09;5017022;28;20985;-81
2023/09/28 01:44:20;;;;;;;3.60;2.50;;;13.80;99.90;;;14.75;100.00;98215.13;5017321;28;20540;-80
2023/09/28 01:46:50;;;;;;;6.80;3.03;;;13.80;99.90;;;14.74;100.00;98215.34;5017861;28;20462;-81
2023/09/28 01:49:21;;;;;;;10.77;3.00;;;13.80;99.90;;;14.73;100.00;98211.09;5016582;28;20472;-81
2023/09/28 01:51:49;;;;;;;6.83;3.10;;;13.80;99.90;;;14.76;100.00;98218.56;5016617;28;20477;-81
2023/09/28 01:54:18;;;;;;;7.50;3.17;;;13.80;99.90;;;14.72;100.00;98217.38;5018356;28;20470;-81
2023/09/28 01:56:49;;;;;;;8.57;3.40;;;13.90;99.90;;;14.70;100.00;98214.16;5016550;28;20463;-80
2023/09/28 01:59:19;;;;;;;9.50;3.50;;;13.80;99.90;;;14.72;100.00;98217.38;5016510;28;20565;-80
2023/09/28 02:01:51;;;;;;;6.87;3.43;;;13.80;99.90;;;14.71;100.00;98215.78;5018361;28;22073;-81
2023/09/28 02:04:22;;;;;;;6.67;2.77;;;13.80;99.90;;;14.67;100.00;98215.38;5019137;28;20467;-80
2023/09/28 02:06:53;;;;;;;9.80;2.90;;;13.70;99.90;;;14.70;100.00;98220.22;5018233;28;20953;-80
2023/09/28 02:09:23;;;;;;;3.57;2.87;;;13.70;99.90;;;14.72;100.00;98223.44;5017570;28;20550;-80
2023/09/28 02:11:54;;;;;;;8.70;3.07;;;13.80;99.90;;;14.70;100.00;98214.16;5017350;28;20981;-81
2023/09/28 02:14:23;;;;;;;8.23;3.43;;;13.80;99.90;;;14.67;100.00;98212.75;5017873;28;20462;-81
2023/09/28 02:16:51;;;;;;;5.70;3.03;;;13.80;99.90;;;14.67;100.00;98204.84;5019493;28;20473;-81
2023/09/28 02:19:22;;;;;;;11.50;2.80;;;13.70;99.90;;;14.64;100.00;98199.19;5018575;28;20496;-81
2023/09/28 02:21:51;;;;;;;4.67;3.07;;;13.70;99.90;;;14.58;100.00;98195.56;5018690;28;20493;-80
2023/09/28 02:24:20;;;;;;;4.10;3.00;;;13.60;99.90;;;14.52;100.00;98202.47;5018681;28;20469;-81
2023/09/28 02:26:51;;;;;;;4.80;3.40;;;13.60;99.90;;;14.50;100.00;98207.16;5019235;28;20490;-81
2023/09/28 02:29:23;;;;;;;6.43;3.23;;;13.60;99.90;;;14.46;100.00;98203.31;5017714;28;20494;-80
2023/09/28 02:31:51;;;;;;;3.47;3.07;;;13.60;99.90;;;14.44;100.00;98194.81;5018253;28;20465;-81
2023/09/28 02:34:21;;;;;;;4.03;3.10;;;13.60;99.90;;;14.48;100.00;98196.00;5018618;28;20465;-81
2023/09/28 02:36:50;;;;;;;4.07;3.23;;;13.50;99.90;;;14.49;100.00;98199.44;5019115;28;20868;-80
2023/09/28 02:39:19;;;;;;;4.60;3.50;;;13.50;99.90;;;14.44;100.00;98200.06;5018190;28;20459;-80
2023/09/28 02:41:49;;;;;;;5.80;3.00;;;13.50;99.90;;;14.42;100.00;98190.78;5019304;28;20977;-81
2023/09/28 02:44:18;;;;;;;5.60;3.33;;;13.50;99.90;;;14.41;100.00;98200.47;5019543;28;20459;-80
2023/09/28 02:46:50;;;;;;;3.80;3.20;;;13.40;99.90;;;14.40;100.00;98193.63;5018649;28;20457;-80
2023/09/28 02:49:20;;;;;;;4.30;2.90;;;13.40;99.90;;;14.35;100.00;98188.16;5020152;28;21010;-81
2023/09/28 02:51:50;;;;;;;7.63;3.60;;;13.40;99.90;;;14.28;100.00;98191.78;5016928;28;20463;-80
2023/09/28 02:54:20;;;;;;;3.23;2.67;;;13.30;99.90;;;14.26;100.00;98189.38;5019116;28;20558;-80
2023/09/28 02:56:50;;;;;;;6.07;3.33;;;13.30;99.90;;;14.26;100.00;98192.00;5017041;28;20466;-80
2023/09/28 02:59:21;;;;;;;4.60;2.53;;;13.30;99.90;;;14.23;100.00;98187.13;5017919;28;20458;-80
2023/09/28 03:01:52;;;;;;;4.50;3.43;;;13.30;99.90;;;14.20;100.00;98200.72;5017363;28;20501;-79
2023/09/28 03:04:21;;;;;;;4.67;2.97;;;13.30;99.90;;;14.18;100.00;98197.50;5017629;28;20477;-80
2023/09/28 03:06:52;;;;;;;5.83;2.80;;;13.40;99.90;;;14.18;100.00;98204.56;5017277;28;21181;-81
2023/09/28 03:09:21;;;;;;;5.27;3.13;;;13.30;99.90;;;14.18;100.00;98200.13;5019965;28;21158;-80
2023/09/28 03:11:50;;;;;;;4.70;3.37;;;13.20;99.90;;;14.17;100.00;98197.69;5018305;28;20469;-80
2023/09/28 03:14:20;;;;;;;6.40;3.17;;;13.20;99.90;;;14.13;100.00;98192.84;5015542;28;20670;-80
2023/09/28 03:16:49;;;;;;;12.03;3.57;;;13.20;99.90;;;14.15;100.00;98200.53;5018273;28;20460;-79
2023/09/28 03:19:19;;;;;;;6.13;3.03;;;13.20;99.90;;;14.15;100.00;98200.53;5017817;28;20549;-79
2023/09/28 03:21:49;;;;;;;6.27;3.37;;;13.20;99.90;;;14.12;100.00;98198.31;5019120;28;20769;-80
2023/09/28 03:24:19;;;;;;;5.50;3.10;;;13.20;99.90;;;14.11;100.00;98194.06;5017486;28;20466;-79
2023/09/28 03:26:49;;;;;;;4.73;3.23;;;13.20;99.90;;;14.11;100.00;98186.19;5017108;28;20517;-79
2023/09/28 03:29:38;;;;;;;6.07;2.87;;;13.10;99.90;;;14.05;100.00;98198.34;5016516;28;20458;-79
2023/09/28 03:32:08;;;;;;;8.40;3.03;;;13.10;99.90;;;14.03;100.00;98199.53;5015228;28;20493;-79
2023/09/28 03:34:40;;;;;;;5.80;2.93;;;13.00;99.90;;;14.00;100.00;98198.13;5015930;28;21006;-80
2023/09/28 03:37:10;;;;;;;9.10;3.00;;;13.00;99.90;;;13.97;100.00;98198.53;5015574;28;20975;-79
2023/09/28 03:39:40;;;;;;;8.60;3.30;;;13.00;99.90;;;13.93;100.00;98205.22;5015770;28;20458;-79
2023/09/28 03:42:10;;;;;;;4.43;2.87;;;13.00;99.90;;;13.91;100.00;98214.31;5013554;28;20508;-79
2023/09/28 03:44:41;;;;;;;3.00;2.70;;;13.00;99.90;;;13.86;100.00;98212.31;5018017;28;20463;-79
2023/09/28 03:47:11;;;;;;;5.43;3.10;;;12.90;99.90;;;13.81;100.00;98209.50;5014972;28;20823;-79
2023/09/28 03:49:43;;;;;;;7.23;3.50;;;12.90;99.90;;;13.81;100.00;98213.94;5015447;28;20565;-79
2023/09/28 03:52:12;;;;;;;6.60;3.17;;;12.90;99.90;;;13.83;100.00;98214.53;5016644;28;20462;-79
2023/09/28 03:54:43;;;;;;;7.63;2.70;;;12.90;99.90;;;13.81;100.00;98217.38;5015345;28;20957;-79
2023/09/28 03:57:13;;;;;;;4.40;3.30;;;12.90;99.90;;;13.83;100.00;98217.97;5017432;28;20470;-79
2023/09/28 03:59:44;;;;;;;5.00;3.10;;;12.80;99.90;;;13.78;100.00;98217.75;5018721;28;21203;-79
2023/09/28 04:02:14;;;;;;;10.80;2.73;;;12.90;99.90;;;13.75;100.00;98217.34;5018503;28;20486;-79
2023/09/28 04:04:45;;;;;;;3.53;2.73;;;13.00;99.90;;;13.71;100.00;98213.53;5016240;28;20910;-80
2023/09/28 04:07:16;;;;;;;9.27;3.57;;;12.90;99.90;;;13.76;100.00;98216.34;5020958;28;20527;-80
2023/09/28 04:09:46;;;;;;;8.20;4.07;;;12.90;99.90;;;13.74;100.00;98210.50;5018796;28;20459;-81
2023/09/28 04:12:17;;;;;;;5.03;3.10;;;12.90;99.90;;;13.78;100.00;98222.22;5019715;28;21039;-79
2023/09/28 04:14:45;;;;;;;4.23;3.17;;;12.90;99.90;;;13.80;100.00;98221.00;5021119;28;20474;-79
2023/09/28 04:17:15;;;;;;;7.73;3.83;;;12.80;99.90;;;13.76;100.00;98211.09;5021397;28;20469;-80
2023/09/28 04:19:47;;;;;;;7.93;3.40;;;12.80;99.90;;;13.74;100.00;98218.38;5021021;28;20470;-79
2023/09/28 04:22:16;;;;;;;6.93;4.13;;;12.80;99.90;;;13.74;100.00;98213.94;5020830;28;20486;-79
2023/09/28 04:24:46;;;;;;;12.40;4.07;;;12.80;99.90;;;13.76;100.00;98224.22;5021344;28;20481;-80
2023/09/28 04:27:17;;;;;;;7.17;3.60;;;12.80;99.90;;;13.74;100.00;98228.91;5019865;28;20722;-79
2023/09/28 04:29:47;;;;;;;6.23;3.73;;;12.80;99.90;;;13.72;100.00;98225.63;5019082;28;20509;-80
2023/09/28 04:32:17;;;;;;;4.50;3.17;;;12.80;99.90;;;13.72;100.00;98230.91;5019959;28;20473;-79
2023/09/28 04:34:49;;;;;;;8.70;3.77;;;12.80;99.90;;;13.70;100.00;98225.88;5018524;28;20463;-80
2023/09/28 04:37:19;;;;;;;3.67;3.13;;;12.70;99.90;;;13.69;100.00;98231.31;5019622;28;20466;-79
2023/09/28 04:39:48;;;;;;;6.40;3.50;;;12.80;99.90;;;13.64;100.00;98231.13;5017671;28;20458;-79
2023/09/28 04:42:20;;;;;;;7.27;3.40;;;12.80;99.90;;;13.63;100.00;98221.59;5019098;28;20580;-79
2023/09/28 04:44:51;;;;;;;4.20;2.83;;;12.80;99.90;;;13.62;100.00;98215.53;5016493;28;21033;-80
2023/09/28 04:47:20;;;;;;;5.50;3.20;;;12.70;99.90;;;13.66;100.00;98214.13;5019761;28;20477;-79
2023/09/28 04:49:52;;;;;;;5.90;2.77;;;12.70;99.90;;;13.62;100.00;98215.53;5020340;28;20564;-79
2023/09/28 04:52:22;;;;;;;7.00;4.23;;;12.70;99.90;;;13.60;100.00;98223.66;5018941;28;20462;-79
2023/09/28 04:54:52;;;;;;;6.13;3.80;;;12.70;99.90;;;13.57;100.00;98224.03;5021004;28;20546;-80
2023/09/28 04:57:25;;;;;;;6.47;2.80;;;12.60;99.90;;;13.57;100.00;98228.50;5018537;28;20513;-79
2023/09/28 04:59:56;;;;;;;4.30;2.90;;;12.60;99.90;;;13.52;100.00;98234.34;5021370;28;20493;-79
2023/09/28 05:02:26;;;;;;;9.73;3.40;;;12.60;99.90;;;13.50;100.00;98231.09;5019635;28;20494;-79
2023/09/28 05:04:59;;;;;;;9.40;3.53;;;12.60;99.90;;;13.47;100.00;98228.06;5020190;28;20476;-79
2023/09/28 05:07:27;;;;;;;8.20;3.50;;;12.60;99.90;;;13.43;100.00;98225.00;5019641;28;20470;-79
2023/09/28 05:09:59;;;;;;;9.10;3.27;;;12.50;99.90;;;13.39;100.00;98228.25;5020249;28;20610;-79
2023/09/28 05:12:30;;;;;;;4.33;3.00;;;12.50;99.90;;;13.35;100.00;98241.00;5020430;28;20466;-79
2023/09/28 05:14:58;;;;;;;3.97;3.03;;;12.50;99.90;;;13.31;100.00;98241.56;5021132;28;20464;-79
2023/09/28 05:17:28;;;;;;;4.40;2.57;;;12.50;99.90;;;13.27;100.00;98243.78;5021089;28;20470;-79
2023/09/28 05:19:59;;;;;;;6.80;3.17;;;12.50;99.90;;;13.32;100.00;98246.66;5019234;28;20522;-80
2023/09/28 05:22:29;;;;;;;8.57;3.60;;;12.40;99.90;;;13.29;100.00;98249.66;5017513;28;20497;-79
2023/09/28 05:25:00;;;;;;;3.63;2.77;;;12.40;99.90;;;13.30;100.00;98242.56;5019454;28;20570;-79
2023/09/28 05:27:30;;;;;;;5.93;3.47;;;12.40;99.90;;;13.32;100.00;98253.72;5017877;28;20508;-79
2023/09/28 05:30:00;;;;;;;7.13;3.47;;;12.30;99.90;;;13.28;100.00;98261.19;5016636;28;20474;-79
2023/09/28 05:32:31;;;;;;;5.77;3.57;;;12.40;99.90;;;13.26;100.00;98263.19;5017443;28;20528;-79
2023/09/28 05:35:05;;;;;;;6.57;3.20;;;12.30;99.90;;;13.30;100.00;98268.84;5018753;28;20454;-79
2023/09/28 05:37:36;;;;;;;5.10;3.50;;;12.40;99.90;;;13.29;100.00;98277.75;5016110;28;20469;-79
2023/09/28 05:40:11;;;;;;;4.73;3.23;;;12.40;99.90;;;13.24;100.00;98275.69;5016647;28;20459;-80
2023/09/28 05:42:41;;;;;;;5.97;3.00;;;12.40;99.90;;;13.22;100.00;98279.53;5018466;28;20533;-79
2023/09/28 05:45:12;;;;;;;4.00;2.80;;;12.30;99.90;;;13.21;100.00;98270.03;5018912;28;20458;-80
2023/09/28 05:47:41;;;;;;;5.80;3.17;;;12.20;99.90;;;13.19;100.00;98272.84;5020395;28;20900;-79
2023/09/28 05:50:13;;;;;;;7.67;3.50;;;12.30;99.90;;;13.17;100.00;98269.63;5018346;28;20474;-79
2023/09/28 05:52:43;;;;;;;4.63;3.50;;;12.30;99.90;;;13.18;100.00;98284.38;5018949;28;21249;-80
2023/09/28 05:55:14;;;;;;;5.97;3.80;;;12.30;99.90;;;13.19;100.00;98298.31;5017603;28;20466;-79
2023/09/28 05:57:44;;;;;;;6.43;3.80;;;12.30;99.90;;;13.16;100.00;98293.44;5018285;28;21034;-80
2023/09/28 06:00:19;;;;;;;5.20;3.10;;;12.30;99.90;;;13.19;100.00;98295.69;5016661;28;20460;-79
2023/09/28 06:02:48;;;;;;;7.20;3.07;;;12.20;99.90;;;13.16;100.00;98294.25;5016607;28;21258;-81
2023/09/28 06:05:19;;;;;;;9.17;3.10;;;12.30;99.90;;;13.12;100.00;98303.53;5017254;28;20561;-79
2023/09/28 06:07:50;;;;;;;4.47;3.03;;;12.30;99.90;;;13.09;100.00;98303.94;5018246;28;20475;-80
2023/09/28 06:10:22;;;;;;;6.30;3.37;;;12.30;99.90;;;13.14;100.00;98306.78;5013759;28;21142;-79
2023/09/28 06:12:51;;;;;;;5.53;3.60;;;12.20;99.90;;;13.18;100.00;98302.75;5016166;28;20542;-79
2023/09/28 06:15:21;;;;;;;4.30;3.13;;;12.20;99.90;;;13.20;100.00;98311.25;5018793;28;20540;-80
2023/09/28 06:17:50;;;;;;;6.97;3.67;;;12.30;99.90;;;13.24;100.00;98319.53;5017505;28;20462;-80
2023/09/28 06:20:20;;;;;;;4.57;3.10;;;12.20;99.90;;;13.23;100.00;98318.72;5017212;28;20951;-79
2023/09/28 06:22:52;;;;;;;11.53;4.13;;;12.30;99.90;;;13.22;100.00;98330.25;5018901;28;20505;-79
2023/09/28 06:25:23;;;;;;;3.93;3.10;;;12.20;99.90;;;13.21;100.00;98318.13;5015577;28;20551;-79
2023/09/28 06:27:53;;;;;;;4.30;2.70;;;12.30;99.90;;;13.20;100.00;98321.75;5016005;28;20497;-80
2023/09/28 06:30:22;;;;;;;6.17;3.40;;;12.30;99.90;;;13.22;100.00;98319.75;5015506;28;20845;-80
2023/09/28 06:32:52;;;;;;;3.50;2.83;;;12.30;99.90;;;13.24;100.00;98312.47;5016699;28;20550;-80
2023/09/28 06:35:23;;;;;;;4.30;3.30;;;12.30;99.90;;;13.26;100.00;98317.53;5015647;28;20481;-80
2023/09/28 06:37:53;;;;;;;5.07;3.67;;;12.30;99.90;;;13.26;100.00;98323.56;5016185;28;20833;-80
2023/09/28 06:40:23;;;;;;;14.50;4.00;;;12.30;99.90;;;13.25;100.00;98321.16;5019274;28;20868;-79
2023/09/28 06:42:52;;;;;;;4.50;3.47;;;12.40;99.90;;;13.28;100.00;98329.47;5018102;28;21042;-80
2023/09/28 06:45:21;;;;;;;4.70;3.50;;;12.40;99.90;;;13.29;100.00;98331.09;5016475;28;20462;-80
2023/09/28 06:47:52;;;;;;;3.67;2.70;;;12.40;99.90;;;13.30;100.00;98326.63;5018528;28;20838;-80
2023/09/28 06:50:43;;;;;;;6.30;3.10;;;12.40;99.90;;;13.32;100.00;98322.81;5016129;28;20556;-80
2023/09/28 06:53:15;;;;;;;3.97;3.20;;;12.50;99.90;;;13.32;100.00;98320.19;5018165;28;20541;-79
2023/09/28 06:55:45;;;;;;;4.23;3.10;;;12.50;99.90;;;13.36;100.00;98321.38;5018514;28;20458;-79
2023/09/28 06:58:26;;;;;;;8.10;4.43;;;12.50;99.90;;;13.38;100.00;98332.53;5016563;28;20462;-80
2023/09/28 07:00:56;;;;;;;5.37;3.90;;;12.50;99.90;;;13.38;100.00;98335.16;5015976;28;20469;-80
2023/09/28 07:03:27;;;;;;;3.87;3.20;;;12.50;99.90;;;13.43;100.00;98340.59;5017229;28;20486;-79
2023/09/28 07:05:58;;;;;;;5.80;3.27;;;12.50;99.90;;;13.46;100.00;98345.50;5018083;28;20466;-79
2023/09/28 07:08:28;;;;;;;7.50;3.63;;;12.60;99.90;;;13.51;100.00;98345.69;5018586;28;20470;-79
2023/09/28 07:10:59;;;;;;;4.43;3.60;;;12.60;99.90;;;13.54;100.00;98352.34;5020167;28;20802;-79
2023/09/28 07:13:29;;;;;;;5.90;3.00;;;12.60;99.90;;;13.56;100.00;98343.28;5019358;28;20478;-79
2023/09/28 07:15:58;;;;;;;4.10;3.20;;;12.70;99.90;;;13.59;100.00;98336.81;5015343;28;20486;-79
2023/09/28 07:18:28;;;;;;;4.90;3.53;;;12.70;99.90;;;13.61;100.00;98351.38;5017940;28;20462;-79
2023/09/28 07:21:00;;;;;;;11.57;3.53;;;12.70;99.90;;;13.64;100.00;98352.78;5018479;28;20485;-80
2023/09/28 07:23:30;;;;;;;12.10;3.73;;;12.80;99.90;;;13.68;100.00;98342.69;5016436;28;20657;-80
2023/09/28 07:26:00;;;;;;;4.40;3.30;;;12.80;99.90;;;13.73;100.00;98337.66;5016569;28;20509;-79
2023/09/28 07:28:30;;;;;;;5.67;3.53;;;12.80;99.90;;;13.78;100.00;98343.13;5017623;28;20466;-79
2023/09/28 07:31:00;;;;;;;4.57;2.90;;;12.90;99.90;;;13.82;100.00;98346.97;5016679;28;20465;-79
2023/09/28 07:33:31;;;;;;;4.13;3.20;;;12.90;99.90;;;13.85;100.00;98338.69;5019425;28;20471;-80
2023/09/28 07:36:05;;;;;;;4.63;2.93;;;12.90;99.90;;;13.90;100.00;98339.72;5017022;28;20894;-80
2023/09/28 07:38:35;;;;;;;6.83;3.20;;;13.00;99.90;;;13.92;100.00;98342.94;5018736;28;20532;-79
2023/09/28 07:41:05;;;;;;;4.70;3.87;;;13.00;99.90;;;13.96;100.00;98338.09;5019027;28;20490;-80
2023/09/28 07:43:36;;;;;;;8.17;3.90;;;13.10;99.90;;;14.01;100.00;98348.81;5022002;28;20532;-79
2023/09/28 07:46:07;;;;;;;5.17;3.43;;;13.10;99.90;;;14.05;100.00;98342.16;5021133;28;20471;-79
2023/09/28 07:48:36;;;;;;;3.73;2.80;;;13.20;99.90;;;14.08;100.00;98345.19;5021345;28;20548;-79
2023/09/28 07:51:07;;;;;;;4.63;3.63;;;13.20;99.90;;;14.13;100.00;98346.41;5021664;28;21177;-78
2023/09/28 07:53:38;;;;;;;4.60;3.17;;;13.20;99.90;;;14.18;100.00;98342.16;5020068;28;20516;-79
2023/09/28 07:56:06;;;;;;;4.97;3.07;;;13.30;99.90;;;14.21;100.00;98338.28;5018715;28;20493;-80
2023/09/28 07:58:37;;;;;;;47.87;22.47;;;13.40;99.90;;;14.25;100.00;98342.97;5019293;28;20484;-80
2023/09/28 08:01:06;;;;;;;9.93;6.90;;;13.40;99.90;;;14.30;100.00;98352.88;5019045;28;20467;-80
2023/09/28 08:03:37;;;;;;;4.60;3.50;;;13.40;99.90;;;14.33;100.00;98345.41;5019016;28;20526;-80
2023/09/28 08:06:10;;;;;;;4.67;3.10;;;13.50;99.90;;;14.35;100.00;98348.66;5017264;28;20466;-79
2023/09/28 08:08:58;;;;;;;6.97;3.50;;;13.50;99.90;;;14.43;100.00;98356.34;5019573;28;20490;-79
2023/09/28 08:11:32;;;;;;;5.00;3.20;;;13.60;99.90;;;14.48;100.00;98353.91;5017878;28;21192;-79
2023/09/28 08:14:05;;;;;;;4.47;3.37;;;13.60;99.90;;;14.52;100.00;98363.00;5018516;28;20457;-79
2023/09/28 08:16:35;;;;;;;4.60;3.50;;;13.70;99.90;;;14.57;100.00;98359.78;5020453;28;20552;-78
2023/09/28 08:19:06;;;;;;;4.53;3.50;;;13.70;99.90;;;14.61;100.00;98364.41;5019518;28;20478;-79
2023/09/28 08:21:40;;;;;;;15.20;4.20;;;13.80;99.90;;;14.67;100.00;98365.44;5019576;28;20461;-79
2023/09/28 08:24:12;;;;;;;8.53;4.00;;;13.90;99.90;;;14.71;100.00;98371.09;5020347;28;20498;-80
2023/09/28 08:26:43;;;;;;;14.10;3.80;;;13.90;99.90;;;14.79;100.00;98376.94;5015548;28;21032;-79
2023/09/28 08:29:12;;;;;;;6.40;3.57;;;14.00;99.90;;;14.82;100.00;98375.72;5018794;28;20473;-82
2023/09/28 08:31:43;;;;;;;38.70;20.63;;;14.00;99.90;;;14.89;100.00;98374.69;5016187;28;20554;-79
2023/09/28 08:34:12;;;;;;;40.23;11.20;;;14.10;99.90;;;14.94;100.00;98369.63;5019480;28;20470;-79
2023/09/28 08:37:01;;;;;;;5.67;4.33;;;14.20;99.90;;;15.01;100.00;98372.22;5018307;28;20449;-80
2023/09/28 08:39:31;;;;;;;6.80;4.00;;;14.20;99.90;;;15.06;100.00;98370.59;5015654;28;20451;-79
2023/09/28 08:42:04;;;;;;;6.50;3.77;;;14.30;99.90;;;15.14;100.00;98361.66;5019822;28;20455;-79
2023/09/28 08:44:35;;;;;;;5.50;4.07;;;14.40;99.90;;;15.22;100.00;98363.25;5017441;28;20592;-79
2023/09/28 08:47:16;;;;;;;11.13;4.10;;;14.50;99.90;;;15.28;100.00;98365.03;5018521;28;20529;-80
2023/09/28 08:49:51;;;;;;;6.33;3.40;;;14.50;99.90;;;15.33;100.00;98360.78;5019573;28;20537;-78
2023/09/28 08:52:27;;;;;;;12.50;3.40;;;14.70;99.90;;;15.41;100.00;98357.09;5017883;28;20830;-80
2023/09/28 08:54:58;;;;;;;7.60;3.60;;;14.70;99.90;;;15.47;100.00;98364.97;5018059;28;20481;-79
2023/09/28 08:57:28;;;;;;;63.77;39.27;;;14.80;99.90;;;15.51;100.00;98368.03;5017342;28;20458;-79
2023/09/28 09:00:02;;;;;;;15.50;9.43;;;14.80;99.90;;;15.56;100.00;98358.47;5018966;28;20542;-79
2023/09/28 09:02:32;;;;;;;5.03;4.00;;;14.90;99.90;;;15.62;100.00;98362.06;5018490;28;20461;-81
2023/09/28 09:05:03;;;;;;;10.77;4.20;;;15.00;99.90;;;15.69;100.00;98362.06;5014030;28;20568;-79
2023/09/28 09:07:36;;;;;;;84.43;46.57;;;15.10;99.90;;;15.77;100.00;98364.44;5018053;28;21106;-80
2023/09/28 09:10:13;;;;;;;25.43;12.33;;;15.20;99.90;;;15.83;100.00;98358.28;5019344;28;20457;-79
2023/09/28 09:12:44;;;;;;;7.83;4.90;;;15.20;99.90;;;15.89;100.00;98357.47;5019755;28;20490;-79
2023/09/28 09:15:14;;;;;;;14.67;3.90;;;15.30;99.90;;;15.95;100.00;98359.25;5015127;28;20470;-79
2023/09/28 09:17:44;;;;;;;6.80;4.13;;;15.40;99.90;;;16.01;100.00;98361.03;5018027;28;20463;-79
2023/09/28 09:20:13;;;;;;;5.20;3.43;;;15.40;99.90;;;16.07;100.00;98360.16;5019906;28;20473;-79
2023/09/28 09:22:46;;;;;;;5.87;3.23;;;15.50;99.90;;;16.14;100.00;98360.91;5015759;28;21033;-80
2023/09/28 09:25:41;;;;;;;8.00;3.10;;;15.60;99.90;;;16.22;100.00;98358.03;5017326;28;20540;-79
2023/09/28 09:28:12;;;;;;;7.27;3.40;;;15.60;99.90;;;16.28;100.00;98357.16;5015855;28;20471;-80
2023/09/28 09:30:44;;;;;;;6.20;3.73;;;15.70;99.90;;;16.32;100.00;98358.34;5015151;28;20493;-80
2023/09/28 09:33:14;;;;;;;7.67;3.90;;;15.80;99.90;;;16.44;100.00;98355.81;5016584;28;20466;-79
2023/09/28 09:35:46;;;;;;;133.70;73.50;;;15.90;99.90;;;16.50;100.00;98355.75;5017483;28;20469;-79
2023/09/28 09:38:23;;;;;;;10.47;4.30;;;16.00;99.90;;;16.55;100.00;98360.41;5018095;28;20462;-80
2023/09/28 09:40:59;;;;;;;6.10;4.30;;;16.00;99.90;;;16.60;100.00;98365.84;5018909;28;20458;-79
2023/09/28 09:43:34;;;;;;;4.77;3.60;;;16.10;99.90;;;16.66;100.00;98359.69;5018486;28;20473;-79
2023/09/28 09:46:05;;;;;;;4.20;2.60;;;16.20;99.90;;;16.72;100.00;98350.91;5018886;28;20503;-80
2023/09/28 09:48:40;;;;;;;8.43;3.20;;;16.30;99.90;;;16.78;100.00;98351.88;5018668;28;20465;-79
2023/09/28 09:51:15;;;;;;;7.73;3.77;;;16.30;99.90;;;16.84;100.00;98354.44;5018025;28;20465;-80
2023/09/28 09:53:48;;;;;;;6.70;3.30;;;16.40;99.90;;;16.93;100.00;98365.53;5017795;28;20548;-79
2023/09/28 09:56:18;;;;;;;10.60;3.50;;;16.50;99.90;;;17.02;100.00;98366.84;5017843;28;20538;-80
2023/09/28 09:58:50;;;;;;;4.07;3.07;;;16.60;99.90;;;17.06;100.00;98357.47;5015959;28;20885;-79
2023/09/28 10:01:22;;;;;;;6.70;3.00;;;16.60;99.90;;;17.15;100.00;98353.47;5018904;28;20489;-80
2023/09/28 10:03:52;;;;;;;5.87;3.30;;;16.70;99.90;;;17.20;100.00;98345.72;5020793;28;20541;-78
2023/09/28 10:06:24;;;;;;;6.53;3.23;;;16.80;99.90;;;17.27;100.00;98343.78;5018351;28;20943;-80
2023/09/28 10:08:55;;;;;;;8.10;3.17;;;16.80;99.90;;;17.39;100.00;98363.16;5018967;28;20459;-79
2023/09/28 10:11:25;;;;;;;6.63;3.00;;;17.00;99.90;;;17.48;100.00;98353.91;5018380;28;20574;-79
2023/09/28 10:13:58;;;;;;;3.97;3.07;;;17.00;99.90;;;17.56;100.00;98350.97;5020116;28;20500;-78
2023/09/28 10:16:29;;;;;;;16.60;3.00;;;17.10;99.90;;;17.64;100.00;98362.25;5018002;28;20457;-80
2023/09/28 10:19:00;;;;;;;10.47;3.50;;;17.10;99.90;;;17.70;100.00;98366.69;5020074;28;20521;-80
2023/09/28 10:21:35;;;;;;;6.33;3.10;;;17.20;99.90;;;17.76;100.00;98371.88;5017385;28;20528;-79
2023/09/28 10:24:13;;;;;;;3.70;2.80;;;17.30;99.90;;;17.80;100.00;98372.22;5017805;28;20487;-79
2023/09/28 10:26:50;;;;;;;5.60;3.40;;;17.40;99.90;;;17.85;100.00;98367.06;5018147;28;20459;-79
2023/09/28 10:29:23;;;;;;;7.93;2.67;;;17.40;99.90;;;17.94;100.00;98371.00;5019459;28;20461;-79